Terminal Aerodrome Forecast
Issued by NWS Sterling, VA

Home | Current Version | Previous Version | Text Only | Print | Product List | Glossary On
Versions: 1 2 3 4 5 6 7 8 9 10 11 12 13 14 15 16 17 18 19 20 21 22 23 24 25
000
FTUS41 KLWX 041729
TAFBWI
TAF
KBWI 041729Z 0418/0524 10004KT P6SM -SHRA VCTS OVC025CB
     FM042000 10004KT P6SM -SHRA VCTS OVC035CB
     FM042200 05004KT P6SM BKN060
     FM050700 VRB03KT 2SM BR BKN250
     FM051000 VRB03KT 4SM BR BKN250
     FM051300 VRB03KT P6SM BKN250=

USA.gov is the U.S. government's official web portal to all federal, state and local government web resources and services.